Time;durP1;ratioP1;P1;durP2;ratioP2;P2;SDS_P1;SDS_P2;PMS_P1;PMS_P2;Temp;Humidity;BMP_temperature;BMP_pressure;BME280_temperature;BME280_humidity;BME280_pressure;Samples;Min_cycle;Max_cycle;Signal;HPM_P1;HPM_P2
2023/06/26 00:00:07;;;;;;;;;;;;;;;11.98;62.61;99781.42;1716461;83;20148;-60
2023/06/26 00:02:35;;;;;;;;;;;;;;;11.93;62.64;99775.58;1721083;81;20484;-60
2023/06/26 00:05:04;;;;;;;;;;;;;;;11.90;62.68;99770.52;1756497;80;20118;-60
2023/06/26 00:07:33;;;;;;;;;;;;;;;11.88;62.82;99776.31;1756789;80;20181;-60
2023/06/26 00:10:02;;;;;;;;;;;;;;;11.81;62.93;99773.95;1692932;83;20188;-60
2023/06/26 00:12:28;;;;;;;;;;;;;;;11.76;62.97;99773.36;1714588;83;20110;-60
2023/06/26 00:14:55;;;;;;;;;;;;;;;11.67;63.08;99780.35;1715794;83;20393;-60
2023/06/26 00:17:21;;;;;;;;;;;;;;;11.65;63.07;99782.22;1717265;83;20513;-60
2023/06/26 00:19:48;;;;;;;;;;;;;;;11.60;63.19;99780.30;1694406;83;20518;-60
2023/06/26 00:22:14;;;;;;;;;;;;;;;11.57;63.45;99779.14;1689612;84;20194;-60
2023/06/26 00:24:40;;;;;;;;;;;;;;;11.53;63.77;99774.98;1720020;83;20168;-60
2023/06/26 00:27:06;;;;;;;;;;;;;;;11.51;63.90;99770.28;1725691;82;20204;-60
2023/06/26 00:29:35;;;;;;;;;;;;;;;11.52;63.98;99775.91;1717942;83;20152;-60
2023/06/26 00:32:01;;;;;;;;;;;;;;;11.51;64.00;99771.58;1715836;83;20146;-60
2023/06/26 00:34:32;;;;;;;;;;;;;;;11.50;64.10;99775.14;1716195;83;20156;-60
2023/06/26 00:36:55;;;;;;;;;;;;;;;11.50;64.07;99769.91;1716128;83;20124;-60
2023/06/26 00:39:21;;;;;;;;;;;;;;;11.48;64.05;99769.12;1716346;83;20111;-60
2023/06/26 00:41:47;;;;;;;;;;;;;;;11.45;63.69;99775.82;1693377;83;20120;-60
2023/06/26 00:44:13;;;;;;;;;;;;;;;11.38;63.69;99776.12;1716491;82;20237;-60
2023/06/26 00:46:39;;;;;;;;;;;;;;;11.35;63.73;99774.14;1720803;82;20212;-60
2023/06/26 00:49:05;;;;;;;;;;;;;;;11.32;64.02;99771.21;1724866;82;20101;-60
2023/06/26 00:51:31;;;;;;;;;;;;;;;11.32;64.01;99771.68;1735641;82;20133;-60
2023/06/26 00:53:57;;;;;;;;;;;;;;;11.27;64.22;99772.36;1723867;81;20108;-60
2023/06/26 00:56:24;;;;;;;;;;;;;;;11.25;64.28;99771.12;1714599;83;20495;-60
2023/06/26 00:58:50;;;;;;;;;;;;;;;11.22;64.11;99768.66;1720842;82;20099;-60
2023/06/26 01:01:17;;;;;;;;;;;;;;;11.17;64.15;99773.26;1724135;82;20184;-60
2023/06/26 01:03:45;;;;;;;;;;;;;;;11.12;64.40;99772.66;1721807;82;20109;-60
2023/06/26 01:06:13;;;;;;;;;;;;;;;11.10;64.41;99767.50;1744587;81;20138;-60
2023/06/26 01:08:41;;;;;;;;;;;;;;;11.07;64.63;99766.80;1746795;81;20453;-60
2023/06/26 01:11:07;;;;;;;;;;;;;;;11.04;64.74;99759.13;1745632;81;20159;-60
2023/06/26 01:13:34;;;;;;;;;;;;;;;11.00;64.77;99758.87;1748588;81;20196;-60
2023/06/26 01:16:02;;;;;;;;;;;;;;;10.96;64.96;99761.62;1716033;83;20173;-60
2023/06/26 01:18:29;;;;;;;;;;;;;;;10.93;65.03;99757.86;1743695;81;20432;-60
2023/06/26 01:21:01;;;;;;;;;;;;;;;10.90;65.14;99758.02;1746454;81;20195;-60
2023/06/26 01:23:25;;;;;;;;;;;;;;;10.89;65.12;99756.30;1746569;81;20480;-60
2023/06/26 01:25:53;;;;;;;;;;;;;;;10.90;65.23;99753.25;1746139;80;20093;-60
2023/06/26 01:28:19;;;;;;;;;;;;;;;10.87;65.13;99752.94;1740023;81;20414;-59
2023/06/26 01:30:46;;;;;;;;;;;;;;;10.86;65.11;99745.16;1743158;81;20210;-60
2023/06/26 01:33:14;;;;;;;;;;;;;;;10.85;65.22;99750.84;1743454;81;20398;-60
2023/06/26 01:35:39;;;;;;;;;;;;;;;10.86;65.39;99748.61;1713756;83;20492;-60
2023/06/26 01:38:20;;;;;;;;;;;;;;;10.82;65.31;99743.63;1728629;82;20447;-60
2023/06/26 01:40:46;;;;;;;;;;;;;;;10.79;65.41;99747.23;1724922;82;20177;-60
2023/06/26 01:43:14;;;;;;;;;;;;;;;10.78;65.46;99742.91;1747529;81;20176;-60
2023/06/26 01:45:40;;;;;;;;;;;;;;;10.75;65.45;99743.05;1743627;80;20132;-60
2023/06/26 01:48:08;;;;;;;;;;;;;;;10.70;65.51;99739.84;1744242;81;20185;-60
2023/06/26 01:50:36;;;;;;;;;;;;;;;10.67;65.42;99732.13;1742676;81;20419;-59
2023/06/26 01:53:04;;;;;;;;;;;;;;;10.67;65.51;99737.34;1744780;81;20217;-60
2023/06/26 01:55:48;;;;;;;;;;;;;;;10.67;65.46;99734.73;1746536;80;20171;-60
2023/06/26 01:58:16;;;;;;;;;;;;;;;10.63;65.43;99739.73;1742811;81;20158;-60
2023/06/26 02:00:42;;;;;;;;;;;;;;;10.60;65.51;99729.44;1740340;81;20473;-60
2023/06/26 02:03:09;;;;;;;;;;;;;;;10.57;65.55;99733.50;1746431;81;20111;-60
2023/06/26 02:05:36;;;;;;;;;;;;;;;10.55;65.61;99727.49;1748724;81;20150;-60
2023/06/26 02:08:02;;;;;;;;;;;;;;;10.55;65.54;99731.41;1752415;81;20165;-60
2023/06/26 02:10:29;;;;;;;;;;;;;;;10.52;65.43;99728.48;1714675;83;20407;-60
2023/06/26 02:12:56;;;;;;;;;;;;;;;10.49;65.56;99725.55;1710232;83;20424;-60
2023/06/26 02:15:22;;;;;;;;;;;;;;;10.46;65.57;99729.61;1751919;81;20147;-60
2023/06/26 02:17:48;;;;;;;;;;;;;;;10.46;65.75;99721.78;1748543;81;20129;-59
2023/06/26 02:20:15;;;;;;;;;;;;;;;10.46;65.95;99729.61;1751177;81;20199;-60
2023/06/26 02:22:42;;;;;;;;;;;;;;;10.48;66.25;99723.03;1713802;83;20152;-60
2023/06/26 02:25:10;;;;;;;;;;;;;;;10.50;66.41;99723.35;1725280;82;20168;-60
2023/06/26 02:27:36;;;;;;;;;;;;;;;10.50;66.51;99718.13;1736663;82;20460;-60
2023/06/26 02:30:03;;;;;;;;;;;;;;;10.51;66.72;99715.05;1733448;82;20161;-60
2023/06/26 02:32:29;;;;;;;;;;;;;;;10.46;66.38;99712.65;1715184;83;20125;-60
2023/06/26 02:34:55;;;;;;;;;;;;;;;10.43;66.54;99719.32;1716141;82;21086;-60
2023/06/26 02:37:21;;;;;;;;;;;;;;;10.41;66.68;99713.31;1718367;82;20109;-61
2023/06/26 02:39:48;;;;;;;;;;;;;;;10.39;66.64;99717.78;1717318;82;20185;-60
2023/06/26 02:42:13;;;;;;;;;;;;;;;10.32;66.77;99713.75;1719495;82;20113;-60
2023/06/26 02:44:39;;;;;;;;;;;;;;;10.27;66.83;99707.89;1688101;84;20165;-60
2023/06/26 02:47:06;;;;;;;;;;;;;;;10.29;66.93;99705.61;1687263;84;20195;-60
2023/06/26 02:49:32;;;;;;;;;;;;;;;10.34;67.04;99708.02;1708611;84;20161;-60
2023/06/26 02:51:58;;;;;;;;;;;;;;;10.39;66.96;99707.78;1707522;84;20177;-60
2023/06/26 02:54:24;;;;;;;;;;;;;;;10.39;66.90;99702.13;1733204;81;20103;-60
2023/06/26 02:56:50;;;;;;;;;;;;;;;10.48;67.12;99708.67;1716538;82;20206;-60
2023/06/26 02:59:17;;;;;;;;;;;;;;;10.55;67.10;99701.39;1715788;82;20148;-60
2023/06/26 03:01:44;;;;;;;;;;;;;;;10.57;66.98;99704.78;1716028;82;20670;-61
2023/06/26 03:04:10;;;;;;;;;;;;;;;10.60;67.09;99709.85;1715765;82;20342;-60
2023/06/26 03:06:36;;;;;;;;;;;;;;;10.63;67.14;99707.09;1712540;83;20157;-60
2023/06/26 03:09:03;;;;;;;;;;;;;;;10.65;66.99;99702.66;1712442;83;20498;-60
2023/06/26 03:11:29;;;;;;;;;;;;;;;10.62;66.91;99700.19;1706890;83;20522;-60
2023/06/26 03:13:55;;;;;;;;;;;;;;;10.61;67.15;99702.39;1740760;82;20193;-60
2023/06/26 03:16:21;;;;;;;;;;;;;;;10.68;67.35;99698.59;1728058;82;20901;-60
2023/06/26 03:18:47;;;;;;;;;;;;;;;10.77;67.55;99701.21;1715671;82;20144;-60
2023/06/26 03:21:13;;;;;;;;;;;;;;;10.85;67.88;99693.85;1747956;81;20141;-60
2023/06/26 03:23:40;;;;;;;;;;;;;;;10.96;67.97;99692.87;1749072;81;20110;-60
2023/06/26 03:26:06;;;;;;;;;;;;;;;11.04;67.87;99699.03;1709311;83;20124;-60
2023/06/26 03:28:32;;;;;;;;;;;;;;;11.11;67.87;99695.17;1709037;83;20103;-61
2023/06/26 03:30:59;;;;;;;;;;;;;;;11.21;68.05;99693.80;1688490;83;20392;-61
2023/06/26 03:33:25;;;;;;;;;;;;;;;11.30;67.98;99695.10;1709853;82;20470;-61
2023/06/26 03:35:51;;;;;;;;;;;;;;;11.37;67.97;99695.16;1708100;82;20467;-61
2023/06/26 03:38:17;;;;;;;;;;;;;;;11.43;68.08;99691.78;1708973;83;20446;-61
2023/06/26 03:40:43;;;;;;;;;;;;;;;11.52;68.33;99687.01;1691076;83;20483;-61
2023/06/26 03:43:09;;;;;;;;;;;;;;;11.60;68.53;99684.84;1692343;83;20121;-61
2023/06/26 03:45:36;;;;;;;;;;;;;;;11.66;68.39;99687.13;1709322;82;20109;-61
2023/06/26 03:48:02;;;;;;;;;;;;;;;11.72;68.41;99692.03;1708978;84;20456;-61
2023/06/26 03:50:28;;;;;;;;;;;;;;;11.81;68.55;99695.47;1729862;82;20101;-59
2023/06/26 03:52:54;;;;;;;;;;;;;;;11.94;68.92;99694.88;1730898;82;20114;-59
2023/06/26 03:55:23;;;;;;;;;;;;;;;12.04;69.25;99690.81;1736127;82;20394;-60
2023/06/26 03:57:49;;;;;;;;;;;;;;;12.13;69.36;99683.80;1725847;82;20147;-60
2023/06/26 04:00:16;;;;;;;;;;;;;;;12.24;69.54;99682.75;1708230;82;20150;-61
2023/06/26 04:02:44;;;;;;;;;;;;;;;12.38;69.66;99677.19;1688339;83;20211;-60
2023/06/26 04:05:11;;;;;;;;;;;;;;;12.52;69.74;99672.06;1722111;82;20128;-61
2023/06/26 04:07:37;;;;;;;;;;;;;;;12.66;69.76;99677.36;1720030;82;20200;-61
2023/06/26 04:10:04;;;;;;;;;;;;;;;12.82;69.92;99679.09;1711821;83;20105;-61
2023/06/26 04:12:30;;;;;;;;;;;;;;;13.00;70.04;99672.81;1700246;83;20465;-61
2023/06/26 04:14:56;;;;;;;;;;;;;;;13.18;70.34;99674.34;1705399;83;20144;-62
2023/06/26 04:17:22;;;;;;;;;;;;;;;13.35;70.26;99677.78;1704930;83;20491;-61
2023/06/26 04:19:48;;;;;;;;;;;;;;;13.54;70.31;99674.91;1724738;82;20113;-61
2023/06/26 04:22:15;;;;;;;;;;;;;;;13.72;70.42;99675.56;1721966;82;20423;-61
2023/06/26 04:24:41;;;;;;;;;;;;;;;13.90;70.49;99666.58;1691717;84;20093;-61
2023/06/26 04:27:06;;;;;;;;;;;;;;;14.07;70.69;99670.77;1712600;82;20340;-61
2023/06/26 04:29:33;;;;;;;;;;;;;;;14.27;70.75;99661.64;1696881;83;20507;-61
2023/06/26 04:31:59;;;;;;;;;;;;;;;14.48;70.81;99660.72;1691987;83;20215;-60
2023/06/26 04:34:28;;;;;;;;;;;;;;;14.67;70.91;99653.84;1754532;81;20495;-61
2023/06/26 04:36:54;;;;;;;;;;;;;;;14.88;70.90;99659.49;1719990;82;20411;-61
2023/06/26 04:39:21;;;;;;;;;;;;;;;15.06;70.94;99652.16;1700220;83;20127;-61
2023/06/26 04:41:47;;;;;;;;;;;;;;;15.23;70.90;99659.75;1689349;84;20209;-62
2023/06/26 04:44:13;;;;;;;;;;;;;;;15.41;71.01;99650.63;1746628;82;20342;-61
2023/06/26 04:46:42;;;;;;;;;;;;;;;15.59;70.85;99645.03;1744181;82;20157;-61
2023/06/26 04:49:09;;;;;;;;;;;;;;;15.76;70.94;99644.73;1738152;82;20169;-61
2023/06/26 04:51:40;;;;;;;;;;;;;;;15.95;70.87;99643.45;1715662;82;20112;-61
2023/06/26 04:54:03;;;;;;;;;;;;;;;16.13;70.94;99643.44;1724984;81;20400;-61
2023/06/26 04:56:30;;;;;;;;;;;;;;;16.31;70.94;99643.45;1719161;83;20105;-61
2023/06/26 04:58:57;;;;;;;;;;;;;;;16.52;71.08;99648.10;1688430;84;20209;-61
2023/06/26 05:01:24;;;;;;;;;;;;;;;16.71;70.87;99639.69;1713350;83;20186;-61
2023/06/26 05:03:54;;;;;;;;;;;;;;;16.89;70.73;99645.45;1700482;84;20165;-61
2023/06/26 05:06:23;;;;;;;;;;;;;;;17.07;70.82;99646.68;1740654;81;20106;-61
2023/06/26 05:08:49;;;;;;;;;;;;;;;17.28;70.74;99646.00;1739403;81;20169;-61
2023/06/26 05:11:19;;;;;;;;;;;;;;;17.47;70.63;99640.99;1739881;81;20096;-61
2023/06/26 05:13:45;;;;;;;;;;;;;;;17.67;70.56;99641.63;1746614;81;20241;-61
2023/06/26 05:16:12;;;;;;;;;;;;;;;17.87;70.32;99637.94;1746977;81;20134;-60
2023/06/26 05:18:38;;;;;;;;;;;;;;;18.07;69.89;99639.00;1746789;82;20111;-62
2023/06/26 05:21:04;;;;;;;;;;;;;;;18.27;69.30;99626.83;1746975;81;20106;-61
2023/06/26 05:23:31;;;;;;;;;;;;;;;18.46;69.05;99634.94;1747076;81;20131;-61
2023/06/26 05:25:58;;;;;;;;;;;;;;;18.68;69.08;99631.84;1747329;81;20173;-61
2023/06/26 05:28:25;;;;;;;;;;;;;;;18.87;68.84;99630.70;1747254;82;20253;-61
2023/06/26 05:30:52;;;;;;;;;;;;;;;19.06;68.58;99626.53;1747268;81;20453;-61
2023/06/26 05:33:19;;;;;;;;;;;;;;;19.29;68.53;99628.06;1747558;81;20141;-61
2023/06/26 05:35:46;;;;;;;;;;;;;;;19.49;67.93;99625.52;1747360;81;20118;-61
2023/06/26 05:38:14;;;;;;;;;;;;;;;19.67;67.98;99625.30;1747044;82;20142;-61
2023/06/26 05:40:40;;;;;;;;;;;;;;;19.89;67.60;99623.78;1747478;82;20402;-61
2023/06/26 05:43:07;;;;;;;;;;;;;;;20.12;67.69;99626.22;1744978;82;20142;-61
2023/06/26 05:45:37;;;;;;;;;;;;;;;20.31;67.30;99620.96;1739145;81;20134;-61
2023/06/26 05:48:01;;;;;;;;;;;;;;;20.48;66.80;99622.09;1728514;82;20131;-61
2023/06/26 05:50:28;;;;;;;;;;;;;;;20.65;66.84;99615.30;1735472;82;20162;-61
2023/06/26 05:52:54;;;;;;;;;;;;;;;20.86;66.79;99614.30;1745385;81;20107;-61
2023/06/26 05:55:21;;;;;;;;;;;;;;;21.04;66.35;99616.59;1741044;81;20103;-62
2023/06/26 05:57:51;;;;;;;;;;;;;;;21.21;65.79;99614.53;1736799;82;20190;-62
2023/06/26 06:00:18;;;;;;;;;;;;;;;21.39;65.62;99616.47;1744361;82;20189;-61
2023/06/26 06:02:44;;;;;;;;;;;;;;;21.57;65.31;99616.07;1741357;81;20095;-61
2023/06/26 06:05:11;;;;;;;;;;;;;;;21.79;64.81;99613.54;1745956;81;20162;-61
2023/06/26 06:07:38;;;;;;;;;;;;;;;21.96;64.58;99619.02;1742990;81;20182;-60
2023/06/26 06:10:05;;;;;;;;;;;;;;;22.14;64.47;99618.59;1741091;81;20520;-61
2023/06/26 06:12:32;;;;;;;;;;;;;;;22.34;64.05;99627.30;1714592;82;20180;-61
2023/06/26 06:14:58;;;;;;;;;;;;;;;22.52;63.43;99620.69;1741004;81;20184;-61
2023/06/26 06:17:26;;;;;;;;;;;;;;;22.69;63.00;99623.00;1741777;81;21259;-60
2023/06/26 06:19:52;;;;;;;;;;;;;;;22.84;62.28;99620.13;1742587;81;20177;-61
2023/06/26 06:22:19;;;;;;;;;;;;;;;22.97;62.29;99620.61;1740967;81;20186;-61
2023/06/26 06:24:46;;;;;;;;;;;;;;;23.08;61.71;99617.33;1741837;81;20164;-60
2023/06/26 06:27:13;;;;;;;;;;;;;;;23.05;61.55;99617.64;1744074;81;20158;-61
2023/06/26 06:29:44;;;;;;;;;;;;;;;23.06;61.07;99615.34;1740006;81;20503;-61
2023/06/26 06:32:07;;;;;;;;;;;;;;;23.01;60.85;99615.30;1740912;81;20402;-61
2023/06/26 06:34:34;;;;;;;;;;;;;;;23.03;60.61;99619.15;1742242;81;20190;-61
2023/06/26 06:37:00;;;;;;;;;;;;;;;23.18;60.48;99616.75;1743251;81;20210;-60
2023/06/26 06:39:28;;;;;;;;;;;;;;;23.35;59.97;99611.86;1736281;80;20221;-61
2023/06/26 06:41:54;;;;;;;;;;;;;;;23.55;59.02;99612.97;1702245;82;20187;-60
2023/06/26 06:44:22;;;;;;;;;;;;;;;23.75;58.94;99606.45;1687811;83;20923;-60
2023/06/26 06:46:48;;;;;;;;;;;;;;;23.85;58.72;99604.48;1712224;82;21224;-61
2023/06/26 06:49:14;;;;;;;;;;;;;;;24.10;58.26;99601.91;1706461;84;20164;-60
2023/06/26 06:51:44;;;;;;;;;;;;;;;24.40;58.39;99602.31;1673970;83;20152;-60
2023/06/26 06:54:12;;;;;;;;;;;;;;;24.82;57.66;99602.72;1714394;82;20216;-62
2023/06/26 06:56:39;;;;;;;;;;;;;;;25.27;56.70;99601.36;1715090;82;20180;-61
2023/06/26 06:59:07;;;;;;;;;;;;;;;25.78;56.97;99597.85;1691225;84;20220;-61
2023/06/26 07:01:33;;;;;;;;;;;;;;;26.21;56.27;99596.98;1722377;82;20160;-61
2023/06/26 07:03:59;;;;;;;;;;;;;;;26.53;55.58;99594.12;1744000;81;20166;-61
2023/06/26 07:06:26;;;;;;;;;;;;;;;26.83;55.70;99602.76;1748687;81;20157;-62
2023/06/26 07:08:52;;;;;;;;;;;;;;;27.52;55.63;99594.06;1748487;81;20170;-62
2023/06/26 07:11:18;;;;;;;;;;;;;;;28.70;55.44;99594.32;1746703;81;20191;-61
2023/06/26 07:13:45;;;;;;;;;;;;;;;29.68;54.61;99596.30;1749379;81;20176;-61
2023/06/26 07:16:11;;;;;;;;;;;;;;;30.74;54.20;99602.01;1748334;81;20456;-61
2023/06/26 07:18:40;;;;;;;;;;;;;;;30.81;51.72;99594.80;1746631;81;20504;-61
2023/06/26 07:21:06;;;;;;;;;;;;;;;31.10;51.55;99598.09;1743524;81;20123;-62
2023/06/26 07:23:32;;;;;;;;;;;;;;;31.97;51.49;99591.99;1746982;81;20204;-61
2023/06/26 07:25:58;;;;;;;;;;;;;;;32.31;49.86;99584.83;1746418;81;20110;-61
2023/06/26 07:28:24;;;;;;;;;;;;;;;32.90;49.75;99584.64;1747459;81;20189;-61
2023/06/26 07:30:51;;;;;;;;;;;;;;;32.96;47.60;99591.86;1746400;80;20173;-62
2023/06/26 07:33:17;;;;;;;;;;;;;;;33.52;48.27;99584.67;1749343;81;20177;-61
2023/06/26 07:35:45;;;;;;;;;;;;;;;33.90;46.61;99576.33;1744796;81;20500;-60
2023/06/26 07:38:11;;;;;;;;;;;;;;;34.08;45.94;99576.30;1747453;81;20493;-64
2023/06/26 07:40:37;;;;;;;;;;;;;;;34.35;44.53;99583.25;1747518;81;20251;-60
2023/06/26 07:43:05;;;;;;;;;;;;;;;35.06;43.46;99576.08;1743672;81;20173;-60
2023/06/26 07:45:33;;;;;;;;;;;;;;;35.12;42.92;99575.13;1749562;81;20166;-60
2023/06/26 07:48:03;;;;;;;;;;;;;;;35.15;42.16;99574.66;1708312;82;20160;-61
2023/06/26 07:50:33;;;;;;;;;;;;;;;35.05;41.09;99571.70;1698718;82;20209;-60
2023/06/26 07:52:59;;;;;;;;;;;;;;;35.17;40.63;99575.25;1728589;82;20978;-60
2023/06/26 07:55:26;;;;;;;;;;;;;;;35.64;39.91;99569.77;1709217;83;20172;-61
2023/06/26 07:57:55;;;;;;;;;;;;;;;36.30;38.94;99568.36;1703390;84;20208;-63
2023/06/26 08:00:20;;;;;;;;;;;;;;;37.45;38.29;99573.43;1729368;82;20169;-61
2023/06/26 08:02:48;;;;;;;;;;;;;;;38.89;37.88;99562.95;1706291;82;20220;-62
2023/06/26 08:05:18;;;;;;;;;;;;;;;39.22;36.51;99560.97;1745064;80;20477;-61
2023/06/26 08:07:48;;;;;;;;;;;;;;;39.26;35.47;99563.44;1751625;80;20099;-61
2023/06/26 08:10:12;;;;;;;;;;;;;;;40.34;34.37;99562.48;1750245;80;20177;-61
2023/06/26 08:12:40;;;;;;;;;;;;;;;41.83;33.97;99561.08;1753389;80;20499;-62
2023/06/26 08:15:07;;;;;;;;;;;;;;;42.70;33.04;99553.05;1751911;80;20661;-65
2023/06/26 08:17:45;;;;;;;;;;;;;;;43.07;31.60;99554.34;1749909;80;20583;-61
2023/06/26 08:20:08;;;;;;;;;;;;;;;43.56;30.79;99555.21;1739968;81;20239;-62
2023/06/26 08:22:34;;;;;;;;;;;;;;;43.38;29.79;99551.27;1752861;80;20189;-61
2023/06/26 08:25:00;;;;;;;;;;;;;;;42.61;28.81;99548.49;1753626;80;20169;-62
2023/06/26 08:27:26;;;;;;;;;;;;;;;42.62;28.00;99548.75;1756247;80;20177;-62
2023/06/26 08:29:52;;;;;;;;;;;;;;;41.11;27.04;99550.39;1753804;80;20177;-61
2023/06/26 08:32:22;;;;;;;;;;;;;;;41.20;27.18;99544.34;1783366;78;20105;-62
2023/06/26 08:34:48;;;;;;;;;;;;;;;41.87;26.31;99549.80;1752432;80;20153;-62
2023/06/26 08:37:15;;;;;;;;;;;;;;;42.45;25.78;99550.55;1751835;80;20198;-63
2023/06/26 08:39:42;;;;;;;;;;;;;;;43.93;25.42;99548.09;1752906;80;20154;-63
2023/06/26 08:42:23;;;;;;;;;;;;;;;44.22;24.25;99545.98;1753336;80;20468;-61
2023/06/26 08:44:40;;;;;;;;;;;;;;;44.02;23.55;99546.32;1717706;83;20200;-63
2023/06/26 08:47:06;;;;;;;;;;;;;;;44.08;23.00;99546.49;1711904;83;20519;-63
2023/06/26 08:49:36;;;;;;;;;;;;;;;44.36;22.81;99542.50;1734359;80;20112;-60
2023/06/26 08:52:04;;;;;;;;;;;;;;;44.43;22.38;99551.20;1696586;83;20139;-60
2023/06/26 08:54:35;;;;;;;;;;;;;;;45.10;22.12;99544.75;1685124;84;20190;-60
2023/06/26 08:57:03;;;;;;;;;;;;;;;45.73;21.15;99539.61;1707428;83;20172;-60
2023/06/26 08:59:29;;;;;;;;;;;;;;;46.39;20.78;99544.97;1699106;83;20202;-60
2023/06/26 09:01:56;;;;;;;;;;;;;;;47.59;20.36;99546.41;1701382;83;20157;-61
2023/06/26 09:04:24;;;;;;;;;;;;;;;48.41;19.57;99536.89;1697701;83;20194;-61
2023/06/26 09:06:50;;;;;;;;;;;;;;;47.04;19.07;99531.69;1713032;81;20166;-61
2023/06/26 09:09:18;;;;;;;;;;;;;;;46.25;18.82;99530.41;1706644;82;20168;-61
2023/06/26 09:11:46;;;;;;;;;;;;;;;47.15;18.77;99524.73;1704978;83;20223;-61
2023/06/26 09:14:16;;;;;;;;;;;;;;;48.38;18.67;99524.52;1682670;83;21082;-61
2023/06/26 09:16:43;;;;;;;;;;;;;;;50.18;17.75;99524.16;1685671;83;20529;-63
2023/06/26 09:19:12;;;;;;;;;;;;;;;50.95;17.11;99519.45;1715755;82;20161;-62
2023/06/26 09:21:40;;;;;;;;;;;;;;;51.47;16.65;99522.93;1716161;82;20204;-62
2023/06/26 09:24:08;;;;;;;;;;;;;;;52.04;16.22;99519.05;1685935;82;20178;-62
2023/06/26 09:26:35;;;;;;;;;;;;;;;52.35;15.91;99521.69;1685345;84;20174;-62
2023/06/26 09:29:04;;;;;;;;;;;;;;;52.36;15.46;99512.19;1669880;84;20133;-62
2023/06/26 09:31:30;;;;;;;;;;;;;;;51.03;14.89;99514.39;1707464;83;20164;-60
2023/06/26 09:33:59;;;;;;;;;;;;;;;51.13;15.06;99515.31;1705244;83;20600;-61
2023/06/26 09:36:28;;;;;;;;;;;;;;;52.46;14.72;99510.24;1706459;83;20188;-61
2023/06/26 09:38:56;;;;;;;;;;;;;;;53.67;14.62;99500.39;1702907;83;20576;-61
2023/06/26 09:41:23;;;;;;;;;;;;;;;54.30;14.07;99497.20;1713159;83;20113;-61
2023/06/26 09:43:51;;;;;;;;;;;;;;;55.12;13.84;99497.77;1683194;84;20238;-61
2023/06/26 09:46:19;;;;;;;;;;;;;;;55.25;13.35;99491.97;1704786;84;20167;-61
2023/06/26 09:48:46;;;;;;;;;;;;;;;55.14;13.08;99494.02;1707312;82;20180;-61
2023/06/26 09:51:12;;;;;;;;;;;;;;;54.92;12.71;99492.06;1724971;82;20168;-61
2023/06/26 09:53:38;;;;;;;;;;;;;;;55.02;12.69;99492.86;1729029;82;20208;-63
2023/06/26 09:56:05;;;;;;;;;;;;;;;54.35;12.18;99490.55;1729527;82;20162;-63
2023/06/26 09:58:32;;;;;;;;;;;;;;;54.22;12.23;99484.29;1742561;82;20185;-62
2023/06/26 10:00:58;;;;;;;;;;;;;;;53.56;12.22;99481.20;1712047;82;20160;-61
2023/06/26 10:03:25;;;;;;;;;;;;;;;54.06;12.07;99480.80;1710729;84;20212;-62
2023/06/26 10:06:04;;;;;;;;;;;;;;;;;;;;;
2023/06/26 10:08:22;;;;;;;;;;;;;;;53.87;11.84;99473.27;1715440;81;20718;-62
2023/06/26 10:10:49;;;;;;;;;;;;;;;54.61;11.66;99461.81;1726890;82;20175;-63
2023/06/26 10:13:17;;;;;;;;;;;;;;;55.14;11.42;99467.44;1739310;81;20182;-63
2023/06/26 10:15:45;;;;;;;;;;;;;;;55.09;11.32;99462.17;1745748;82;20237;-63
2023/06/26 10:18:15;;;;;;;;;;;;;;;54.00;10.80;99447.39;1743025;80;20185;-63
2023/06/26 10:20:43;;;;;;;;;;;;;;;51.91;10.96;99462.61;1745102;80;20198;-63
2023/06/26 10:23:10;;;;;;;;;;;;;;;50.86;11.05;99451.48;1740666;81;20170;-63
2023/06/26 10:25:39;;;;;;;;;;;;;;;50.20;11.24;99460.78;1735924;81;20158;-62
2023/06/26 10:28:07;;;;;;;;;;;;;;;49.20;11.31;99451.48;1744458;80;20508;-63
2023/06/26 10:30:38;;;;;;;;;;;;;;;49.59;11.41;99446.67;1743547;82;20115;-63
2023/06/26 10:33:04;;;;;;;;;;;;;;;50.31;11.24;99444.52;1741900;81;20173;-63
2023/06/26 10:35:36;;;;;;;;;;;;;;;49.73;11.16;99441.64;1740743;81;20171;-63
2023/06/26 10:38:03;;;;;;;;;;;;;;;47.74;11.10;99436.66;1716738;82;20105;-64
2023/06/26 10:40:31;;;;;;;;;;;;;;;47.09;11.44;99432.06;1713231;83;20491;-63
2023/06/26 10:43:08;;;;;;;;;;;;;;;48.00;11.61;99426.13;1740403;82;20147;-63
2023/06/26 10:45:35;;;;;;;;;;;;;;;46.78;11.27;99427.42;1737713;81;20221;-63
2023/06/26 10:48:01;;;;;;;;;;;;;;;46.67;11.97;99425.28;1741009;82;20123;-63
2023/06/26 10:50:28;;;;;;;;;;;;;;;48.90;11.98;99422.98;1739797;81;20143;-63
2023/06/26 10:53:15;;;;;;;;;;;;;;;49.81;11.52;99415.77;1741974;82;20529;-61
2023/06/26 10:55:51;;;;;;;;;;;;;;;50.54;11.52;99414.31;1755135;80;20158;-62
2023/06/26 10:58:29;;;;;;;;;;;;;;;48.90;11.25;99409.94;1742270;81;20185;-64
2023/06/26 11:01:13;;;;;;;;;;;;;;;49.09;11.40;99411.45;1740184;81;20162;-62
2023/06/26 11:03:40;;;;;;;;;;;;;;;48.87;11.46;99410.61;1742068;81;20178;-64
2023/06/26 11:06:09;;;;;;;;;;;;;;;46.91;11.26;99415.16;1713806;82;20117;-63
2023/06/26 11:08:48;;;;;;;;;;;;;;;47.13;11.59;99417.83;1681797;84;20185;-62
2023/06/26 11:11:15;;;;;;;;;;;;;;;47.26;11.07;99409.97;1692137;83;20233;-63
2023/06/26 11:13:45;;;;;;;;;;;;;;;46.64;11.47;99402.65;1691412;83;20177;-62
2023/06/26 11:16:12;;;;;;;;;;;;;;;46.35;11.58;99404.55;1691813;83;20197;-62
2023/06/26 11:18:38;;;;;;;;;;;;;;;45.18;11.44;99399.13;1693210;83;20432;-63
2023/06/26 11:21:08;;;;;;;;;;;;;;;44.22;12.22;99396.59;1695976;83;20212;-62
2023/06/26 11:23:36;;;;;;;;;;;;;;;43.24;12.08;99394.56;1695371;83;20595;-63
2023/06/26 11:26:17;;;;;;;;;;;;;;;40.80;12.51;99400.99;1691496;83;20548;-62
2023/06/26 11:28:56;;;;;;;;;;;;;;;38.85;13.08;99393.98;1693737;83;20198;-62
2023/06/26 11:31:30;;;;;;;;;;;;;;;36.88;13.58;99398.19;1713843;81;20512;-62
2023/06/26 11:33:56;;;;;;;;;;;;;;;35.56;14.51;99395.02;1695320;83;20202;-62
2023/06/26 11:36:27;;;;;;;;;;;;;;;34.31;15.47;99409.42;1688539;83;20164;-62
2023/06/26 11:38:55;;;;;;;;;;;;;;;32.65;15.24;99400.83;1688893;83;20514;-62
2023/06/26 11:41:22;;;;;;;;;;;;;;;31.10;16.16;99398.03;1693849;83;20196;-62
2023/06/26 11:43:49;;;;;;;;;;;;;;;30.44;17.39;99406.26;1695399;84;20223;-62
2023/06/26 11:46:23;;;;;;;;;;;;;;;30.42;18.01;99407.83;1697587;83;20176;-62
2023/06/26 11:48:48;;;;;;;;;;;;;;;31.31;18.62;99406.33;1690901;83;20228;-61
2023/06/26 11:51:15;;;;;;;;;;;;;;;32.06;18.91;99400.31;1691750;83;20133;-62
2023/06/26 11:53:42;;;;;;;;;;;;;;;31.93;18.86;99403.11;1693348;83;20193;-62
2023/06/26 11:56:10;;;;;;;;;;;;;;;31.75;19.04;99397.91;1693832;83;20192;-63
2023/06/26 11:58:36;;;;;;;;;;;;;;;31.50;19.31;99403.78;1694724;83;20201;-61
2023/06/26 12:01:04;;;;;;;;;;;;;;;30.94;20.19;99400.68;1693959;83;20212;-62
2023/06/26 12:03:33;;;;;;;;;;;;;;;30.41;20.26;99398.08;1687106;83;20773;-62
2023/06/26 12:06:00;;;;;;;;;;;;;;;30.01;20.42;99395.38;1690924;84;20211;-62
2023/06/26 12:08:27;;;;;;;;;;;;;;;29.60;21.83;99399.02;1742008;80;20147;-62
2023/06/26 12:10:53;;;;;;;;;;;;;;;29.20;21.43;99389.49;1742296;82;20277;-62
2023/06/26 12:13:20;;;;;;;;;;;;;;;28.98;22.19;99391.95;1742443;81;20166;-62
2023/06/26 12:15:46;;;;;;;;;;;;;;;28.78;22.33;99389.17;1740082;82;20175;-62
2023/06/26 12:18:12;;;;;;;;;;;;;;;28.84;22.44;99384.86;1740191;81;20167;-63
2023/06/26 12:20:40;;;;;;;;;;;;;;;29.06;22.77;99386.44;1741979;81;20186;-62
2023/06/26 12:23:10;;;;;;;;;;;;;;;29.25;22.61;99382.70;1739699;81;20170;-61
2023/06/26 12:25:36;;;;;;;;;;;;;;;29.16;23.68;99392.28;1742241;81;20202;-62
2023/06/26 12:28:02;;;;;;;;;;;;;;;28.99;23.04;99382.88;1742940;80;20508;-62
2023/06/26 12:30:28;;;;;;;;;;;;;;;28.97;23.90;99386.27;1744768;82;20162;-63
2023/06/26 12:32:54;;;;;;;;;;;;;;;28.86;24.19;99380.12;1745678;81;20194;-62
2023/06/26 12:35:22;;;;;;;;;;;;;;;28.87;23.80;99371.02;1738897;81;20173;-62
2023/06/26 12:37:48;;;;;;;;;;;;;;;28.64;24.13;99364.09;1745648;82;20190;-63
2023/06/26 12:40:18;;;;;;;;;;;;;;;28.28;24.19;99367.75;1738397;81;20214;-62
2023/06/26 12:42:45;;;;;;;;;;;;;;;27.86;24.67;99368.14;1741849;81;20226;-61
2023/06/26 12:45:17;;;;;;;;;;;;;;;27.89;26.13;99366.92;1740795;80;20460;-61
2023/06/26 12:47:44;;;;;;;;;;;;;;;27.83;25.82;99367.19;1744898;81;20178;-61